Osceola, WI

7:38 PM CDT on October 20, 2017 (GMT -0500)
Simenstad Municipal

Weather History for KOEO - February, 2013

Change the Weather History Date:

Monday, February 11, 2013

  Actual Average (KANE) Record (KANE)
Temperature  
Mean Temperature 26 °F -  
Max Temperature 32 °F 26 °F 46 °F (2005)
Min Temperature 19 °F 11 °F -14 °F (2014)
Degree Days  
Heating Degree Days 40    
Moisture  
Dew Point 22 °F    
Average Humidity 82    
Maximum Humidity 100    
Minimum Humidity 69    
Precipitation  
Precipitation 0.00 in - - ()
Sea Level Pressure  
Sea Level Pressure 29.74 in    
Wind  
Wind Speed 13 mph (WNW)    
Max Wind Speed 21 mph    
Max Gust Speed 29 mph    
Visibility 9 miles    
Events Snow    
Averages and records for this station are not official NWS values.
T = Trace of Precipitation, MM = Missing Value Source: NWS Daily Summary

Daily Weather History Graph

Daily Weather History Graph

Search for Another Location

Airport or City:

Trip Planner

Search our weather history database for the weather conditions in past years. The results will help you decide how hot, cold, wet, or windy it might be!

Date:

Astronomy

Feb. 11, 2013 Rise Set
Actual Time 7:17 AM CST 5:32 PM CST
Civil Twilight 6:47 AM CST 6:03 PM CST
Nautical Twilight 6:12 AM CST 6:38 PM CST
Astronomical Twilight 5:38 AM CST 7:12 PM CST
Moon 7:35 AM CST (2/11) 7:38 PM CST (2/11)
Length of Visible Light 11h 16m
Length of Day
10h 15m
Waxing Crescent, 3% of the Moon is Illuminated
Feb 11
Waxing Crescent
Feb 17
First Quarter
Feb 25
Full
Mar 4
Last Quarter
Mar 11
New

Hourly Weather History & Observations

Time (CST) Temp. Windchill Dew Point Humidity Pressure Visibility Wind Dir Wind Speed Gust Speed Precip Events Conditions
12:15 AM 32.0 °F 24.2 °F 30.2 °F 93% 29.31 in 1.2 mi NNW 9.2 mph - N/A Snow Light Snow
12:35 AM 32.0 °F 24.2 °F 30.2 °F 93% 29.33 in 2.0 mi NNW 9.2 mph - N/A Snow Light Snow
12:55 AM 32.0 °F 23.6 °F 30.2 °F 93% 29.34 in 4.0 mi NW 10.4 mph - N/A Snow Light Snow
1:15 AM 32.0 °F 24.2 °F 30.2 °F 93% 29.35 in 10.0 mi NW 9.2 mph - N/A   Overcast
1:35 AM 32.0 °F 22.5 °F 30.2 °F 93% 29.35 in 10.0 mi NW 12.7 mph - N/A   Overcast
1:55 AM 32.0 °F 22.5 °F 32.0 °F 100% 29.36 in 7.0 mi NW 12.7 mph 18.4 mph N/A   Overcast
2:15 AM 32.0 °F 22.1 °F 32.0 °F 100% 29.37 in 4.0 mi NW 13.8 mph 18.4 mph N/A   Overcast
2:35 AM 32.0 °F 23.6 °F 32.0 °F 100% 29.39 in 4.0 mi WNW 10.4 mph - N/A Snow Light Snow
2:55 AM 32.0 °F 21.2 °F 30.2 °F 93% 29.40 in 5.0 mi WNW 16.1 mph 23.0 mph N/A Snow Light Snow
3:15 AM 30.2 °F 19.8 °F 28.4 °F 93% 29.41 in 3.0 mi NW 13.8 mph 20.7 mph N/A Snow Light Snow
3:35 AM 30.2 °F 19.3 °F 28.4 °F 93% 29.42 in 5.0 mi WNW 15.0 mph 21.9 mph N/A Snow Light Snow
3:55 AM 30.2 °F 19.8 °F 28.4 °F 93% 29.44 in 10.0 mi WNW 13.8 mph 23.0 mph N/A   Overcast
4:15 AM 30.2 °F 19.8 °F 28.4 °F 93% 29.45 in 10.0 mi NW 13.8 mph 19.6 mph N/A   Overcast
4:35 AM 30.2 °F 20.2 °F 28.4 °F 93% 29.47 in 10.0 mi NW 12.7 mph 21.9 mph N/A   Overcast
4:55 AM 30.2 °F 19.8 °F 28.4 °F 93% 29.49 in 7.0 mi NW 13.8 mph 21.9 mph N/A   Overcast
5:15 AM 30.2 °F 19.8 °F 26.6 °F 86% 29.50 in 7.0 mi NW 13.8 mph 20.7 mph N/A   Overcast
5:55 AM 28.4 °F 17.0 °F 26.6 °F 93% 29.53 in 4.0 mi WNW 15.0 mph 23.0 mph N/A Snow Light Snow
6:15 AM 28.4 °F 18.0 °F 26.6 °F 93% 29.55 in 4.0 mi WNW 12.7 mph 20.7 mph N/A Snow Light Snow
6:35 AM 28.4 °F 16.6 °F 26.6 °F 93% 29.56 in 7.0 mi WNW 16.1 mph 19.6 mph N/A Snow Light Snow
6:55 AM 28.4 °F 16.6 °F 24.8 °F 86% 29.58 in 10.0 mi WNW 16.1 mph 21.9 mph N/A Snow Light Snow
7:15 AM 28.4 °F 17.5 °F 24.8 °F 86% 29.59 in 7.0 mi WNW 13.8 mph 20.7 mph N/A Snow Light Snow
7:35 AM 28.4 °F 17.5 °F 24.8 °F 86% 29.61 in 4.0 mi WNW 13.8 mph 21.9 mph N/A Snow Light Snow
7:55 AM 26.6 °F 13.4 °F 23.0 °F 86% 29.63 in 7.0 mi WNW 18.4 mph 24.2 mph N/A Snow Light Snow
8:15 AM 26.6 °F 13.8 °F 23.0 °F 86% 29.64 in 10.0 mi WNW 17.3 mph 21.9 mph N/A   Overcast
8:35 AM 26.6 °F 15.2 °F 23.0 °F 86% 29.65 in 10.0 mi WNW 13.8 mph 21.9 mph N/A Snow Light Snow
8:55 AM 26.6 °F 14.7 °F 21.2 °F 80% 29.67 in 10.0 mi WNW 15.0 mph 19.6 mph N/A   Overcast
9:15 AM 26.6 °F 14.3 °F 21.2 °F 80% 29.69 in 10.0 mi WNW 16.1 mph 27.6 mph N/A   Overcast
9:35 AM 26.6 °F 13.4 °F 21.2 °F 80% 29.71 in 10.0 mi WNW 18.4 mph 28.8 mph N/A   Overcast
9:55 AM 26.6 °F 14.7 °F 21.2 °F 80% 29.72 in 10.0 mi NW 15.0 mph 25.3 mph N/A   Overcast
10:15 AM 26.6 °F 15.7 °F 19.4 °F 74% 29.73 in 10.0 mi NW 12.7 mph 25.3 mph N/A   Overcast
10:35 AM 26.6 °F 16.8 °F 21.2 °F 80% 29.75 in 10.0 mi NW 10.4 mph 24.2 mph N/A   Overcast
10:55 AM 26.6 °F 16.2 °F 19.4 °F 74% 29.76 in 10.0 mi NW 11.5 mph 18.4 mph N/A   Overcast
11:15 AM 28.4 °F 18.5 °F 19.4 °F 69% 29.77 in 10.0 mi NW 11.5 mph 19.6 mph N/A   Overcast
11:35 AM 28.4 °F 17.5 °F 19.4 °F 69% 29.77 in 10.0 mi WNW 13.8 mph 20.7 mph N/A   Overcast
11:55 AM 28.4 °F 17.0 °F 21.2 °F 74% 29.78 in 10.0 mi WNW 15.0 mph 23.0 mph N/A   Overcast
12:15 PM 28.4 °F 17.5 °F 21.2 °F 74% 29.79 in 10.0 mi WNW 13.8 mph 21.9 mph N/A   Overcast
12:35 PM 28.4 °F 17.0 °F 21.2 °F 74% 29.79 in 10.0 mi WNW 15.0 mph 20.7 mph N/A   Overcast
12:55 PM 28.4 °F 15.8 °F 19.4 °F 69% 29.80 in 10.0 mi WNW 18.4 mph 27.6 mph N/A   Overcast
1:15 PM 28.4 °F 15.1 °F 19.4 °F 69% 29.81 in 10.0 mi WNW 20.7 mph 26.5 mph N/A   Overcast
1:35 PM 28.4 °F 17.5 °F 19.4 °F 69% 29.82 in 10.0 mi WNW 13.8 mph 21.9 mph N/A   Overcast
1:55 PM 28.4 °F 17.0 °F 19.4 °F 69% 29.83 in 10.0 mi West 15.0 mph 26.5 mph N/A   Overcast
2:15 PM 28.4 °F 17.5 °F 19.4 °F 69% 29.84 in 10.0 mi WNW 13.8 mph 26.5 mph N/A   Overcast
2:35 PM 28.4 °F 16.6 °F 19.4 °F 69% 29.84 in 10.0 mi WNW 16.1 mph 26.5 mph N/A   Overcast
2:55 PM 28.4 °F 16.6 °F 19.4 °F 69% 29.86 in 10.0 mi WNW 16.1 mph 23.0 mph N/A   Overcast
3:15 PM 28.4 °F 18.5 °F 19.4 °F 69% 29.86 in 10.0 mi WNW 11.5 mph 21.9 mph N/A   Overcast
3:35 PM 28.4 °F 16.6 °F 19.4 °F 69% 29.87 in 10.0 mi WNW 16.1 mph 21.9 mph N/A   Overcast
3:55 PM 28.4 °F 17.0 °F 21.2 °F 74% 29.88 in 10.0 mi West 15.0 mph 23.0 mph N/A   Overcast
4:55 PM 26.6 °F 14.7 °F 19.4 °F 74% 29.91 in 10.0 mi WNW 15.0 mph 21.9 mph N/A   Overcast
5:15 PM 26.6 °F 15.7 °F 19.4 °F 74% 29.93 in 10.0 mi West 12.7 mph 20.7 mph N/A   Overcast
5:35 PM 24.8 °F 12.9 °F 19.4 °F 80% 29.94 in 10.0 mi West 13.8 mph 26.5 mph N/A   Overcast
5:55 PM 24.8 °F 12.9 °F 19.4 °F 80% 29.95 in 10.0 mi West 13.8 mph 19.6 mph N/A   Overcast
6:15 PM 24.8 °F 13.4 °F 19.4 °F 80% 29.96 in 10.0 mi West 12.7 mph - N/A   Overcast
6:35 PM 23.0 °F 10.1 °F 17.6 °F 80% 29.96 in 10.0 mi West 15.0 mph - N/A   Overcast
6:55 PM 23.0 °F 11.1 °F 17.6 °F 80% 29.96 in 10.0 mi West 12.7 mph - N/A   Overcast
7:15 PM 23.0 °F 11.1 °F 17.6 °F 80% 29.97 in 10.0 mi West 12.7 mph 16.1 mph N/A   Overcast
7:35 PM 23.0 °F 11.7 °F 17.6 °F 80% 29.97 in 10.0 mi West 11.5 mph - N/A   Overcast
7:55 PM 23.0 °F 11.7 °F 17.6 °F 80% 29.98 in 10.0 mi West 11.5 mph 17.3 mph N/A   Overcast
8:15 PM 23.0 °F 11.1 °F 17.6 °F 80% 29.98 in 10.0 mi West 12.7 mph - N/A   Overcast
8:35 PM 21.2 °F 8.3 °F 17.6 °F 86% 29.99 in 10.0 mi West 13.8 mph - N/A   Overcast
8:55 PM 21.2 °F 10.1 °F 15.8 °F 80% 30.00 in 10.0 mi West 10.4 mph - N/A   Overcast
9:15 PM 21.2 °F 8.3 °F 15.8 °F 80% 30.00 in 10.0 mi West 13.8 mph 17.3 mph N/A   Overcast
9:35 PM 21.2 °F 10.1 °F 15.8 °F 80% 30.01 in 10.0 mi West 10.4 mph - N/A   Overcast
9:55 PM 21.2 °F 10.1 °F 14.0 °F 74% 30.02 in 10.0 mi West 10.4 mph 18.4 mph N/A   Overcast
10:15 PM 21.2 °F 10.9 °F 14.0 °F 74% 30.02 in 10.0 mi West 9.2 mph - N/A   Overcast
10:35 PM 21.2 °F 10.9 °F 15.8 °F 80% 30.02 in 10.0 mi West 9.2 mph - N/A   Overcast
10:55 PM 21.2 °F 10.9 °F 14.0 °F 74% 30.03 in 10.0 mi West 9.2 mph - N/A   Overcast
11:15 PM 19.4 °F 9.5 °F 14.0 °F 80% 30.03 in 10.0 mi West 8.1 mph - N/A   Overcast
11:35 PM 19.4 °F 8.6 °F 14.0 °F 80% 30.03 in 10.0 mi West 9.2 mph - N/A Snow Light Snow
11:55 PM 19.4 °F 7.9 °F 14.0 °F 80% 30.03 in 10.0 mi West 10.4 mph - N/A   Overcast